createdAt,value
2023-04-03T00:00:02.980Z,26.58
2023-04-03T00:01:02.998Z,26.57
2023-04-03T00:02:03.044Z,26.48
2023-04-03T00:03:02.983Z,26.48
2023-04-03T00:04:02.980Z,26.58
2023-04-03T00:05:02.969Z,26.55
2023-04-03T00:06:02.992Z,26.55
2023-04-03T00:07:02.957Z,26.54
2023-04-03T00:08:02.971Z,26.51
2023-04-03T00:09:02.962Z,26.55
2023-04-03T00:10:02.966Z,26.57
2023-04-03T00:11:02.967Z,26.51
2023-04-03T00:12:02.966Z,26.58
2023-04-03T00:13:02.957Z,26.55
2023-04-03T00:14:02.973Z,26.57
2023-04-03T00:15:02.972Z,26.55
2023-04-03T00:16:02.982Z,26.57
2023-04-03T00:17:03.018Z,26.52
2023-04-03T00:18:03.028Z,26.55
2023-04-03T00:19:02.968Z,26.57
2023-04-03T00:20:02.962Z,26.52
2023-04-03T00:21:02.954Z,26.52
2023-04-03T00:22:02.998Z,26.57
2023-04-03T00:23:02.953Z,26.60
2023-04-03T00:24:02.959Z,26.62
2023-04-03T00:25:02.962Z,26.54
2023-04-03T00:26:02.960Z,26.48
2023-04-03T00:27:02.954Z,26.48
2023-04-03T00:28:02.971Z,26.57
2023-04-03T00:29:02.957Z,26.48
2023-04-03T00:30:02.964Z,26.54
2023-04-03T00:31:02.991Z,26.48
2023-04-03T00:32:02.956Z,26.58
2023-04-03T00:33:03.041Z,26.55
2023-04-03T00:34:02.958Z,26.57
2023-04-03T00:35:02.952Z,26.58
2023-04-03T00:36:03.001Z,26.55
2023-04-03T00:37:03.027Z,26.55
2023-04-03T00:38:02.972Z,26.51
2023-04-03T00:39:02.952Z,26.62
2023-04-03T00:40:02.954Z,26.52
2023-04-03T00:41:02.952Z,26.48
2023-04-03T00:42:02.951Z,26.54
2023-04-03T00:43:02.944Z,26.60
2023-04-03T00:44:02.950Z,26.54
2023-04-03T00:45:02.957Z,26.57
2023-04-03T00:46:02.997Z,26.57
2023-04-03T00:47:02.944Z,26.57
2023-04-03T00:48:02.956Z,26.50
2023-04-03T00:49:02.958Z,26.57
2023-04-03T00:50:02.950Z,26.54
2023-04-03T00:51:02.947Z,26.51
2023-04-03T00:52:02.946Z,26.51
2023-04-03T00:53:02.943Z,26.52
2023-04-03T00:54:02.974Z,26.58
2023-04-03T00:55:02.943Z,26.52
2023-04-03T00:56:02.955Z,26.48
2023-04-03T00:57:02.971Z,26.51
2023-04-03T00:58:02.945Z,26.52
2023-04-03T00:59:02.946Z,26.47
2023-04-03T01:00:02.950Z,26.51
2023-04-03T01:01:02.941Z,26.57
2023-04-03T01:02:03.100Z,26.51
2023-04-03T01:03:02.966Z,26.52
2023-04-03T01:04:02.988Z,26.51
2023-04-03T01:05:02.934Z,26.54
2023-04-03T01:06:02.949Z,26.52
2023-04-03T01:07:02.945Z,26.55
2023-04-03T01:08:02.948Z,26.52
2023-04-03T01:09:02.935Z,26.52
2023-04-03T01:10:03.060Z,26.48
2023-04-03T01:11:02.943Z,26.52
2023-04-03T01:12:02.940Z,26.55
2023-04-03T01:13:02.938Z,26.54
2023-04-03T01:14:02.977Z,26.55
2023-04-03T01:15:02.932Z,26.52
2023-04-03T01:16:02.974Z,26.58
2023-04-03T01:17:02.935Z,26.55
2023-04-03T01:18:03.024Z,26.52
2023-04-03T01:19:02.935Z,26.58
2023-04-03T01:20:02.940Z,26.51
2023-04-03T01:21:02.933Z,26.54
2023-04-03T01:22:02.951Z,26.52
2023-04-03T01:23:02.930Z,26.54
2023-04-03T01:24:02.944Z,26.50
2023-04-03T01:25:02.933Z,26.58
2023-04-03T01:26:02.972Z,26.55
2023-04-03T01:27:02.929Z,26.50
2023-04-03T01:28:02.934Z,26.52
2023-04-03T01:29:02.931Z,26.51
2023-04-03T01:30:02.937Z,26.57
2023-04-03T01:31:03.007Z,26.60
2023-04-03T01:32:02.941Z,26.57
2023-04-03T01:33:03.021Z,26.55
2023-04-03T01:34:02.933Z,26.57
2023-04-03T01:35:02.924Z,26.51
2023-04-03T01:36:02.989Z,26.50
2023-04-03T01:37:02.959Z,26.52
2023-04-03T01:38:02.955Z,26.51
2023-04-03T01:39:02.928Z,26.50
2023-04-03T01:40:02.932Z,26.55
2023-04-03T01:41:02.937Z,26.57
2023-04-03T01:42:02.961Z,26.55
2023-04-03T01:43:02.925Z,26.54
2023-04-03T01:44:02.931Z,26.54
2023-04-03T01:45:02.919Z,26.51
2023-04-03T01:46:03.001Z,26.48
2023-04-03T01:47:02.935Z,26.51
2023-04-03T01:48:02.954Z,26.52
2023-04-03T01:49:02.924Z,26.51
2023-04-03T01:50:02.926Z,26.54
2023-04-03T01:51:02.933Z,26.54
2023-04-03T01:52:02.923Z,26.55
2023-04-03T01:53:02.926Z,26.52
2023-04-03T01:54:02.926Z,26.57
2023-04-03T01:55:02.924Z,26.57
2023-04-03T01:56:02.926Z,26.55
2023-04-03T01:57:03.017Z,26.51
2023-04-03T01:58:02.970Z,26.51
2023-04-03T01:59:02.938Z,26.52
2023-04-03T02:00:02.957Z,26.58
2023-04-03T02:01:02.941Z,26.62
2023-04-03T02:02:02.934Z,26.51
2023-04-03T02:03:02.923Z,26.54
2023-04-03T02:04:02.979Z,26.51
2023-04-03T02:05:02.916Z,26.62
2023-04-03T02:06:02.923Z,26.52
2023-04-03T02:07:02.926Z,26.55
2023-04-03T02:08:02.921Z,26.54
2023-04-03T02:09:02.922Z,26.55
2023-04-03T02:10:02.940Z,26.57
2023-04-03T02:11:02.909Z,26.57
2023-04-03T02:12:02.923Z,26.50
2023-04-03T02:13:02.943Z,26.54
2023-04-03T02:14:02.962Z,26.54
2023-04-03T02:15:02.941Z,26.55
2023-04-03T02:16:02.920Z,26.50
2023-04-03T02:17:03.017Z,26.51
2023-04-03T02:18:03.000Z,26.50
2023-04-03T02:19:02.905Z,26.52
2023-04-03T02:20:02.909Z,26.52
2023-04-03T02:21:02.901Z,26.45
2023-04-03T02:22:02.909Z,26.50
2023-04-03T02:23:02.908Z,26.51
2023-04-03T02:24:02.912Z,26.55
2023-04-03T02:25:02.903Z,26.54
2023-04-03T02:26:02.987Z,26.51
2023-04-03T02:27:02.904Z,26.48
2023-04-03T02:28:02.904Z,26.52
2023-04-03T02:29:02.898Z,26.50
2023-04-03T02:30:02.925Z,26.54
2023-04-03T02:31:02.947Z,26.51
2023-04-03T02:32:02.902Z,26.52
2023-04-03T02:33:02.911Z,26.51
2023-04-03T02:34:02.901Z,26.51
2023-04-03T02:35:02.893Z,26.57
2023-04-03T02:36:03.052Z,26.51
2023-04-03T02:37:02.905Z,26.55
2023-04-03T02:38:02.902Z,26.50
2023-04-03T02:39:02.891Z,26.50
2023-04-03T02:40:02.906Z,26.54
2023-04-03T02:41:02.899Z,26.50
2023-04-03T02:42:02.898Z,26.44
2023-04-03T02:43:02.898Z,26.48
2023-04-03T02:44:02.911Z,26.44
2023-04-03T02:45:02.895Z,26.52
2023-04-03T02:46:02.977Z,26.47
2023-04-03T02:47:02.890Z,26.52
2023-04-03T02:48:02.961Z,26.54
2023-04-03T02:49:02.893Z,26.51
2023-04-03T02:50:02.899Z,26.50
2023-04-03T02:51:02.893Z,26.50
2023-04-03T02:52:02.896Z,26.50
2023-04-03T02:53:02.890Z,26.52
2023-04-03T02:54:02.900Z,26.47
2023-04-03T02:55:02.905Z,26.54
2023-04-03T02:56:02.904Z,26.48
2023-04-03T02:57:02.932Z,26.50
2023-04-03T02:58:02.903Z,26.54
2023-04-03T02:59:02.894Z,26.54
2023-04-03T03:00:02.896Z,26.44
2023-04-03T03:01:02.888Z,26.48
2023-04-03T03:02:03.001Z,26.48
2023-04-03T03:03:02.907Z,26.54
2023-04-03T03:04:02.899Z,26.48
2023-04-03T03:05:02.893Z,26.43
2023-04-03T03:06:02.900Z,26.51
2023-04-03T03:07:02.888Z,26.48
2023-04-03T03:08:02.901Z,26.52
2023-04-03T03:09:02.886Z,26.52
2023-04-03T03:10:02.891Z,26.50
2023-04-03T03:11:02.886Z,26.51
2023-04-03T03:12:02.890Z,26.44
2023-04-03T03:13:02.884Z,26.44
2023-04-03T03:14:02.897Z,26.50
2023-04-03T03:15:02.884Z,26.51
2023-04-03T03:16:02.926Z,26.51
2023-04-03T03:17:02.878Z,26.50
2023-04-03T03:18:02.956Z,26.51
2023-04-03T03:19:02.878Z,26.50
2023-04-03T03:20:02.937Z,26.54
2023-04-03T03:21:02.878Z,26.48
2023-04-03T03:22:02.910Z,26.43
2023-04-03T03:23:02.880Z,26.48
2023-04-03T03:24:02.889Z,26.51
2023-04-03T03:25:02.894Z,26.43
2023-04-03T03:26:02.898Z,26.48
2023-04-03T03:27:02.887Z,26.50
2023-04-03T03:28:02.909Z,26.40
2023-04-03T03:29:02.872Z,26.48
2023-04-03T03:30:02.897Z,26.40
2023-04-03T03:31:02.915Z,26.51
2023-04-03T03:32:02.907Z,26.54
2023-04-03T03:33:02.941Z,26.40
2023-04-03T03:34:02.914Z,26.47
2023-04-03T03:35:02.889Z,26.45
2023-04-03T03:36:02.949Z,26.51
2023-04-03T03:37:02.870Z,26.51
2023-04-03T03:38:02.879Z,26.45
2023-04-03T03:39:02.872Z,26.44
2023-04-03T03:40:02.876Z,26.48
2023-04-03T03:41:02.869Z,26.43
2023-04-03T03:42:02.906Z,26.48
2023-04-03T03:43:02.864Z,26.54
2023-04-03T03:44:02.871Z,26.47
2023-04-03T03:45:02.864Z,26.52
2023-04-03T03:46:02.877Z,26.40
2023-04-03T03:47:02.865Z,26.44
2023-04-03T03:48:02.937Z,26.54
2023-04-03T03:49:02.863Z,26.50
2023-04-03T03:50:02.894Z,26.52
2023-04-03T03:51:02.863Z,26.50
2023-04-03T03:52:02.876Z,26.40
2023-04-03T03:53:02.866Z,26.52
2023-04-03T03:54:02.869Z,26.50
2023-04-03T03:55:02.865Z,26.50
2023-04-03T03:56:02.873Z,26.48
2023-04-03T03:57:02.889Z,26.51
2023-04-03T03:58:02.876Z,26.48
2023-04-03T03:59:02.862Z,26.50
2023-04-03T04:00:02.880Z,26.54
2023-04-03T04:01:02.865Z,26.50
2023-04-03T04:02:02.891Z,26.44
2023-04-03T04:03:02.934Z,26.50
2023-04-03T04:04:02.952Z,26.54
2023-04-03T04:05:02.865Z,26.45
2023-04-03T04:06:02.913Z,26.48
2023-04-03T04:07:02.866Z,26.48
2023-04-03T04:08:02.868Z,26.54
2023-04-03T04:09:02.864Z,26.51
2023-04-03T04:10:02.864Z,26.55
2023-04-03T04:11:02.863Z,26.52
2023-04-03T04:12:02.857Z,26.50
2023-04-03T04:13:02.864Z,26.50
2023-04-03T04:14:02.860Z,26.40
2023-04-03T04:15:02.862Z,26.50
2023-04-03T04:16:02.856Z,26.47
2023-04-03T04:17:02.953Z,26.44
2023-04-03T04:18:02.878Z,26.48
2023-04-03T04:19:02.863Z,26.50
2023-04-03T04:20:02.856Z,26.40
2023-04-03T04:21:02.861Z,26.51
2023-04-03T04:22:02.900Z,26.51
2023-04-03T04:23:02.859Z,26.52
2023-04-03T04:24:02.852Z,26.48
2023-04-03T04:25:02.862Z,26.44
2023-04-03T04:26:02.854Z,26.52
2023-04-03T04:27:02.876Z,26.51
2023-04-03T04:28:02.858Z,26.51
2023-04-03T04:29:02.856Z,26.48
2023-04-03T04:30:02.859Z,26.48
2023-04-03T04:31:02.869Z,26.44
2023-04-03T04:32:02.846Z,26.48
2023-04-03T04:33:02.902Z,26.45
2023-04-03T04:34:02.846Z,26.39
2023-04-03T04:35:02.880Z,26.43
2023-04-03T04:36:02.882Z,26.48
2023-04-03T04:37:03.014Z,26.43
2023-04-03T04:38:02.903Z,26.47
2023-04-03T04:39:02.857Z,26.50
2023-04-03T04:40:02.855Z,26.47
2023-04-03T04:41:02.852Z,26.36
2023-04-03T04:42:02.881Z,26.45
2023-04-03T04:43:02.854Z,26.43
2023-04-03T04:44:02.838Z,26.43
2023-04-03T04:45:02.847Z,26.44
2023-04-03T04:46:02.882Z,26.39
2023-04-03T04:47:02.846Z,26.45
2023-04-03T04:48:02.857Z,26.47
2023-04-03T04:49:02.844Z,26.47
2023-04-03T04:50:02.839Z,26.43
2023-04-03T04:51:02.850Z,26.40
2023-04-03T04:52:02.855Z,26.47
2023-04-03T04:53:02.846Z,26.39
2023-04-03T04:54:02.862Z,26.37
2023-04-03T04:55:02.841Z,26.36
2023-04-03T04:56:02.833Z,26.39
2023-04-03T04:57:02.853Z,26.36
2023-04-03T04:58:02.833Z,26.35
2023-04-03T04:59:02.846Z,26.33
2023-04-03T05:00:02.836Z,26.36
2023-04-03T05:01:02.839Z,26.36
2023-04-03T05:02:02.943Z,26.35
2023-04-03T05:03:02.897Z,26.28
2023-04-03T05:04:02.830Z,26.25
2023-04-03T05:05:04.826Z,26.26
2023-04-03T05:06:02.830Z,26.35
2023-04-03T05:07:02.844Z,26.30
2023-04-03T05:08:02.834Z,26.28
2023-04-03T05:09:02.843Z,26.37
2023-04-03T05:10:02.859Z,26.29
2023-04-03T05:11:02.836Z,26.32
2023-04-03T05:12:02.825Z,26.25
2023-04-03T05:13:02.871Z,26.26
2023-04-03T05:14:02.827Z,26.23
2023-04-03T05:15:02.840Z,26.33
2023-04-03T05:16:02.837Z,26.29
2023-04-03T05:17:02.829Z,26.30
2023-04-03T05:18:02.835Z,26.33
2023-04-03T05:19:02.829Z,26.32
2023-04-03T05:20:02.822Z,26.35
2023-04-03T05:21:02.833Z,26.35
2023-04-03T05:22:02.824Z,26.36
2023-04-03T05:23:02.828Z,26.37
2023-04-03T05:24:02.823Z,26.33
2023-04-03T05:25:02.831Z,26.36
2023-04-03T05:26:02.842Z,26.43
2023-04-03T05:27:02.824Z,26.44
2023-04-03T05:28:02.821Z,26.44
2023-04-03T05:29:02.824Z,26.43
2023-04-03T05:30:02.846Z,26.43
2023-04-03T05:31:02.858Z,26.50
2023-04-03T05:32:02.820Z,26.50
2023-04-03T05:33:02.847Z,26.45
2023-04-03T05:34:02.816Z,26.47
2023-04-03T05:35:02.825Z,26.45
2023-04-03T05:36:02.839Z,26.54
2023-04-03T05:37:02.823Z,26.45
2023-04-03T05:38:02.813Z,26.50
2023-04-03T05:39:02.818Z,26.52
2023-04-03T05:40:02.808Z,26.55
2023-04-03T05:41:02.819Z,26.51
2023-04-03T05:42:02.834Z,26.47
2023-04-03T05:43:02.815Z,26.67
2023-04-03T05:44:02.808Z,26.58
2023-04-03T05:45:02.813Z,26.65
2023-04-03T05:46:02.896Z,26.62
2023-04-03T05:47:02.824Z,26.62
2023-04-03T05:48:02.843Z,26.65
2023-04-03T05:49:02.809Z,26.65
2023-04-03T05:50:02.803Z,26.66
2023-04-03T05:51:02.818Z,26.80
2023-04-03T05:52:02.807Z,26.73
2023-04-03T05:53:02.809Z,26.65
2023-04-03T05:54:02.802Z,26.75
2023-04-03T05:55:02.814Z,26.75
2023-04-03T05:56:02.809Z,26.73
2023-04-03T05:57:02.836Z,26.80
2023-04-03T05:58:02.836Z,26.77
2023-04-03T05:59:02.806Z,26.72
2023-04-03T06:00:02.798Z,26.72
2023-04-03T06:01:02.810Z,26.75
2023-04-03T06:02:02.805Z,26.76
2023-04-03T06:03:02.928Z,26.75
2023-04-03T06:04:03.024Z,26.82
2023-04-03T06:05:02.927Z,26.82
2023-04-03T06:06:02.798Z,26.80
2023-04-03T06:07:02.810Z,26.89
2023-04-03T06:08:02.797Z,26.76
2023-04-03T06:09:03.855Z,26.82
2023-04-03T06:10:02.799Z,26.92
2023-04-03T06:11:02.806Z,26.89
2023-04-03T06:12:02.809Z,26.91
2023-04-03T06:13:02.805Z,26.89
2023-04-03T06:14:02.829Z,26.87
2023-04-03T06:15:02.807Z,26.92
2023-04-03T06:16:02.795Z,26.94
2023-04-03T06:17:02.873Z,26.91
2023-04-03T06:18:02.817Z,26.89
2023-04-03T06:19:02.808Z,26.95
2023-04-03T06:20:02.798Z,26.92
2023-04-03T06:21:02.802Z,26.94
2023-04-03T06:22:02.796Z,26.87
2023-04-03T06:23:02.804Z,26.97
2023-04-03T06:24:02.793Z,26.97
2023-04-03T06:25:02.801Z,26.92
2023-04-03T06:26:02.798Z,26.89
2023-04-03T06:27:02.812Z,26.97
2023-04-03T06:28:02.792Z,26.89
2023-04-03T06:29:02.800Z,27.00
2023-04-03T06:30:02.817Z,26.95
2023-04-03T06:31:02.823Z,26.99
2023-04-03T06:32:02.792Z,26.99
2023-04-03T06:33:02.854Z,27.03
2023-04-03T06:34:02.797Z,26.91
2023-04-03T06:35:02.801Z,26.89
2023-04-03T06:36:02.877Z,26.94
2023-04-03T06:37:02.801Z,26.97
2023-04-03T06:38:02.791Z,26.95
2023-04-03T06:39:02.798Z,26.92
2023-04-03T06:40:02.790Z,26.99
2023-04-03T06:41:02.805Z,26.97
2023-04-03T06:42:02.788Z,26.91
2023-04-03T06:43:02.810Z,26.94
2023-04-03T06:44:02.788Z,26.95
2023-04-03T06:45:02.796Z,26.95
2023-04-03T06:46:02.939Z,26.97
2023-04-03T06:47:02.794Z,26.99
2023-04-03T06:48:02.918Z,26.95
2023-04-03T06:49:02.796Z,26.95
2023-04-03T06:50:02.788Z,26.92
2023-04-03T06:51:02.794Z,27.02
2023-04-03T06:52:02.865Z,27.04
2023-04-03T06:53:02.794Z,27.07
2023-04-03T06:54:02.788Z,27.04
2023-04-03T06:55:02.904Z,27.14
2023-04-03T06:56:02.790Z,27.13
2023-04-03T06:57:02.814Z,27.19
2023-04-03T06:58:02.788Z,27.25
2023-04-03T06:59:02.792Z,27.25
2023-04-03T07:00:02.815Z,27.24
2023-04-03T07:01:02.800Z,27.17
2023-04-03T07:02:02.967Z,27.21
2023-04-03T07:03:02.870Z,27.22
2023-04-03T07:04:02.785Z,27.22
2023-04-03T07:05:02.793Z,27.32
2023-04-03T07:06:02.786Z,27.36
2023-04-03T07:07:02.793Z,27.37
2023-04-03T07:08:02.787Z,27.29
2023-04-03T07:09:02.794Z,27.39
2023-04-03T07:10:03.052Z,27.34
2023-04-03T07:11:02.791Z,27.29
2023-04-03T07:12:02.788Z,27.39
2023-04-03T07:13:02.806Z,27.37
2023-04-03T07:14:02.788Z,27.40
2023-04-03T07:15:02.798Z,27.44
2023-04-03T07:16:02.814Z,27.40
2023-04-03T07:17:02.814Z,27.37
2023-04-03T07:18:02.874Z,27.49
2023-04-03T07:19:02.798Z,27.46
2023-04-03T07:20:02.788Z,27.39
2023-04-03T07:21:02.810Z,27.46
2023-04-03T07:22:02.787Z,27.37
2023-04-03T07:23:04.150Z,27.36
2023-04-03T07:24:02.793Z,27.54
2023-04-03T07:25:02.798Z,27.46
2023-04-03T07:26:02.787Z,27.50
2023-04-03T07:27:02.798Z,27.54
2023-04-03T07:28:02.788Z,27.57
2023-04-03T07:29:02.796Z,27.54
2023-04-03T07:30:02.813Z,27.63
2023-04-03T07:31:02.798Z,27.51
2023-04-03T07:32:02.890Z,27.60
2023-04-03T07:33:02.892Z,27.51
2023-04-03T07:34:02.814Z,27.59
2023-04-03T07:35:04.018Z,27.57
2023-04-03T07:36:02.859Z,27.51
2023-04-03T07:37:02.798Z,27.59
2023-04-03T07:38:02.800Z,27.51
2023-04-03T07:39:02.800Z,27.50
2023-04-03T07:40:02.788Z,27.46
2023-04-03T07:41:02.802Z,27.55
2023-04-03T07:42:02.796Z,27.51
2023-04-03T07:43:02.798Z,27.51
2023-04-03T07:44:02.790Z,27.50
2023-04-03T07:45:02.844Z,27.36
2023-04-03T07:46:02.866Z,27.46
2023-04-03T07:47:02.810Z,27.41
2023-04-03T07:48:02.834Z,27.43
2023-04-03T07:49:02.799Z,27.46
2023-04-03T07:50:02.822Z,27.46
2023-04-03T07:51:02.802Z,27.43
2023-04-03T07:52:02.790Z,27.32
2023-04-03T07:53:02.797Z,27.34
2023-04-03T07:54:02.795Z,27.29
2023-04-03T07:55:02.799Z,27.25
2023-04-03T07:56:02.791Z,27.27
2023-04-03T07:57:02.878Z,27.29
2023-04-03T07:58:02.809Z,27.21
2023-04-03T07:59:02.798Z,27.21
2023-04-03T08:00:02.835Z,27.13
2023-04-03T08:01:02.804Z,27.13
2023-04-03T08:02:02.791Z,27.09
2023-04-03T08:03:02.971Z,27.09
2023-04-03T08:04:02.870Z,27.13
2023-04-03T08:05:02.941Z,27.10
2023-04-03T08:06:02.811Z,27.17
2023-04-03T08:07:02.797Z,27.03
2023-04-03T08:08:02.787Z,27.13
2023-04-03T08:09:02.797Z,27.04
2023-04-03T08:10:02.793Z,27.02
2023-04-03T08:11:02.795Z,27.06
2023-04-03T08:12:02.789Z,27.07
2023-04-03T08:13:02.804Z,27.02
2023-04-03T08:14:02.793Z,27.09
2023-04-03T08:15:02.794Z,27.10
2023-04-03T08:16:02.807Z,27.07
2023-04-03T08:17:02.821Z,27.10
2023-04-03T08:18:02.878Z,27.09
2023-04-03T08:19:03.797Z,27.10
2023-04-03T08:20:02.786Z,27.09
2023-04-03T08:21:02.787Z,27.10
2023-04-03T08:22:02.818Z,27.13
2023-04-03T08:23:02.791Z,27.12
2023-04-03T08:24:02.799Z,27.17
2023-04-03T08:25:02.811Z,27.17
2023-04-03T08:26:02.794Z,27.13
2023-04-03T08:27:02.784Z,27.12
2023-04-03T08:28:02.831Z,27.13
2023-04-03T08:29:02.793Z,27.19
2023-04-03T08:30:02.803Z,27.22
2023-04-03T08:31:02.826Z,27.19
2023-04-03T08:32:02.799Z,27.21
2023-04-03T08:33:02.822Z,27.18
2023-04-03T08:34:02.793Z,27.32
2023-04-03T08:35:02.795Z,27.22
2023-04-03T08:36:02.824Z,27.28
2023-04-03T08:37:02.786Z,27.24
2023-04-03T08:38:02.845Z,27.25
2023-04-03T08:39:02.784Z,27.24
2023-04-03T08:40:02.803Z,27.22
2023-04-03T08:41:02.787Z,27.25
2023-04-03T08:42:02.793Z,27.21
2023-04-03T08:43:02.787Z,27.18
2023-04-03T08:44:02.797Z,27.19
2023-04-03T08:45:02.789Z,27.22
2023-04-03T08:46:02.810Z,27.27
2023-04-03T08:47:02.788Z,27.32
2023-04-03T08:48:02.836Z,27.22
2023-04-03T08:49:02.843Z,27.22
2023-04-03T08:50:02.796Z,27.27
2023-04-03T08:51:03.707Z,27.36
2023-04-03T08:52:02.800Z,27.32
2023-04-03T08:53:02.789Z,27.27
2023-04-03T08:54:02.924Z,27.36
2023-04-03T08:55:02.787Z,27.22
2023-04-03T08:56:02.798Z,27.22
2023-04-03T08:57:02.820Z,27.32
2023-04-03T08:58:02.795Z,27.22
2023-04-03T08:59:02.787Z,27.18
2023-04-03T09:00:02.806Z,27.22
2023-04-03T09:01:02.788Z,27.10
2023-04-03T09:02:02.876Z,27.18
2023-04-03T09:03:02.825Z,27.04
2023-04-03T09:04:02.860Z,27.06
2023-04-03T09:05:02.786Z,27.10
2023-04-03T09:06:02.798Z,27.06
2023-04-03T09:07:02.785Z,27.02
2023-04-03T09:08:02.802Z,27.04
2023-04-03T09:09:02.806Z,27.00
2023-04-03T09:10:02.921Z,26.97
2023-04-03T09:11:02.789Z,26.92
2023-04-03T09:12:02.795Z,26.94
2023-04-03T09:13:02.783Z,26.92
2023-04-03T09:14:02.801Z,26.89
2023-04-03T09:15:02.785Z,26.87
2023-04-03T09:16:02.799Z,26.87
2023-04-03T09:17:02.783Z,26.76
2023-04-03T09:18:02.840Z,26.82
2023-04-03T09:19:02.787Z,26.80
2023-04-03T09:20:02.799Z,26.81
2023-04-03T09:21:02.786Z,26.80
2023-04-03T09:22:02.790Z,26.73
2023-04-03T09:23:02.779Z,26.75
2023-04-03T09:24:02.794Z,26.76
2023-04-03T09:25:02.780Z,26.73
2023-04-03T09:26:02.912Z,26.81
2023-04-03T09:27:02.799Z,26.72
2023-04-03T09:28:02.811Z,26.69
2023-04-03T09:29:02.778Z,26.70
2023-04-03T09:30:02.800Z,26.65
2023-04-03T09:31:02.796Z,26.60
2023-04-03T09:32:02.787Z,26.65
2023-04-03T09:33:02.964Z,26.70
2023-04-03T09:34:02.786Z,26.69
2023-04-03T09:35:09.579Z,26.63
2023-04-03T09:36:02.803Z,26.67
2023-04-03T09:37:02.777Z,26.73
2023-04-03T09:38:02.782Z,26.72
2023-04-03T09:39:02.774Z,26.73
2023-04-03T09:40:02.787Z,26.76
2023-04-03T09:41:02.774Z,26.75
2023-04-03T09:42:02.917Z,26.66
2023-04-03T09:43:02.773Z,26.67
2023-04-03T09:44:02.806Z,26.75
2023-04-03T09:45:02.806Z,26.75
2023-04-03T09:46:02.782Z,26.75
2023-04-03T09:47:02.811Z,26.75
2023-04-03T09:48:02.845Z,26.76
2023-04-03T09:49:08.862Z,26.70
2023-04-03T09:50:02.779Z,26.72
2023-04-03T09:51:02.897Z,26.70
2023-04-03T09:52:02.778Z,26.70
2023-04-03T09:53:02.772Z,26.77
2023-04-03T09:54:02.784Z,26.69
2023-04-03T09:55:02.769Z,26.81
2023-04-03T09:56:02.780Z,26.67
2023-04-03T09:57:02.785Z,26.72
2023-04-03T09:58:02.900Z,26.77
2023-04-03T09:59:02.772Z,26.75
2023-04-03T10:00:02.787Z,26.76
2023-04-03T10:01:02.819Z,26.80
2023-04-03T10:02:02.785Z,26.76
2023-04-03T10:03:02.801Z,26.84
2023-04-03T10:04:02.800Z,26.85
2023-04-03T10:06:02.808Z,26.76
2023-04-03T10:07:02.770Z,26.84
2023-04-03T10:08:04.072Z,26.75
2023-04-03T10:09:02.773Z,26.82
2023-04-03T10:10:02.786Z,26.81
2023-04-03T10:11:02.767Z,26.85
2023-04-03T10:12:02.771Z,26.82
2023-04-03T10:13:02.764Z,26.84
2023-04-03T10:14:02.900Z,26.82
2023-04-03T10:15:02.766Z,26.77
2023-04-03T10:16:02.775Z,26.81
2023-04-03T10:17:02.816Z,26.87
2023-04-03T10:18:11.584Z,26.81
2023-04-03T10:19:02.769Z,26.81
2023-04-03T10:20:02.799Z,26.84
2023-04-03T10:21:02.768Z,26.84
2023-04-03T10:22:02.767Z,26.81
2023-04-03T10:23:02.761Z,26.88
2023-04-03T10:24:02.769Z,26.91
2023-04-03T10:25:02.762Z,26.88
2023-04-03T10:26:02.767Z,26.84
2023-04-03T10:27:02.758Z,26.91
2023-04-03T10:28:02.775Z,26.89
2023-04-03T10:29:02.767Z,26.87
2023-04-03T10:30:02.889Z,26.94
2023-04-03T10:31:02.812Z,26.91
2023-04-03T10:32:02.764Z,26.94
2023-04-03T10:33:02.830Z,26.89
2023-04-03T10:34:02.789Z,26.92
2023-04-03T10:35:05.444Z,26.97
2023-04-03T10:36:02.803Z,26.97
2023-04-03T10:37:02.756Z,26.92
2023-04-03T10:38:02.771Z,26.89
2023-04-03T10:39:02.758Z,26.95
2023-04-03T10:40:02.783Z,26.91
2023-04-03T10:41:02.753Z,26.94
2023-04-03T10:42:16.134Z,26.91
2023-04-03T10:43:02.756Z,26.92
2023-04-03T10:44:02.759Z,27.00
2023-04-03T10:45:02.758Z,26.94
2023-04-03T10:46:02.906Z,26.94
2023-04-03T10:47:02.750Z,26.94
2023-04-03T10:48:02.923Z,26.89
2023-04-03T10:49:02.758Z,26.99
2023-04-03T10:50:02.781Z,26.95
2023-04-03T10:51:02.754Z,26.95
2023-04-03T10:52:02.761Z,26.92
2023-04-03T10:53:02.753Z,26.95
2023-04-03T10:54:02.760Z,26.94
2023-04-03T10:55:02.755Z,27.03
2023-04-03T10:56:02.768Z,26.95
2023-04-03T10:57:11.974Z,27.00
2023-04-03T10:58:02.761Z,27.00
2023-04-03T10:59:02.753Z,27.07
2023-04-03T11:00:02.797Z,27.06
2023-04-03T11:01:02.754Z,27.04
2023-04-03T11:02:02.953Z,27.10
2023-04-03T11:03:02.824Z,27.12
2023-04-03T11:04:02.943Z,27.12
2023-04-03T11:05:02.764Z,27.06
2023-04-03T11:06:02.761Z,27.12
2023-04-03T11:07:02.750Z,27.12
2023-04-03T11:08:02.811Z,27.14
2023-04-03T11:09:02.754Z,27.18
2023-04-03T11:10:02.790Z,27.17
2023-04-03T11:11:02.750Z,27.19
2023-04-03T11:12:02.767Z,27.12
2023-04-03T11:13:02.756Z,27.18
2023-04-03T11:14:02.758Z,27.24
2023-04-03T11:15:02.755Z,27.21
2023-04-03T11:16:02.839Z,27.14
2023-04-03T11:17:02.752Z,27.22
2023-04-03T11:18:02.900Z,27.13
2023-04-03T11:19:02.749Z,27.21
2023-04-03T11:20:02.960Z,27.21
2023-04-03T11:21:02.752Z,27.18
2023-04-03T11:22:02.760Z,27.18
2023-04-03T11:23:02.758Z,27.18
2023-04-03T11:24:02.778Z,27.22
2023-04-03T11:25:02.749Z,27.24
2023-04-03T11:26:02.757Z,27.25
2023-04-03T11:27:02.760Z,27.28
2023-04-03T11:28:02.779Z,27.22
2023-04-03T11:29:02.761Z,27.25
2023-04-03T11:30:02.780Z,27.25
2023-04-03T11:31:02.790Z,27.27
2023-04-03T11:32:02.755Z,27.18
2023-04-03T11:33:02.776Z,27.25
2023-04-03T11:34:02.925Z,27.31
2023-04-03T11:35:02.751Z,27.28
2023-04-03T11:36:09.679Z,27.31
2023-04-03T11:37:02.792Z,27.29
2023-04-03T11:38:02.783Z,27.36
2023-04-03T11:39:02.749Z,27.34
2023-04-03T11:40:02.792Z,27.34
2023-04-03T11:41:02.749Z,27.32
2023-04-03T11:42:12.519Z,27.39
2023-04-03T11:43:02.751Z,27.32
2023-04-03T11:44:02.786Z,27.31
2023-04-03T11:45:02.749Z,27.34
2023-04-03T11:46:02.755Z,27.34
2023-04-03T11:47:02.807Z,27.32
2023-04-03T11:48:10.144Z,27.32
2023-04-03T11:49:02.746Z,27.34
2023-04-03T11:50:02.882Z,27.37
2023-04-03T11:51:02.755Z,27.31
2023-04-03T11:52:02.758Z,27.39
2023-04-03T11:53:02.747Z,27.32
2023-04-03T11:54:02.757Z,27.29
2023-04-03T11:55:02.778Z,27.32
2023-04-03T11:56:02.799Z,27.22
2023-04-03T11:57:02.775Z,27.18
2023-04-03T11:58:02.775Z,27.28
2023-04-03T11:59:02.747Z,27.36
2023-04-03T12:00:02.846Z,27.36
2023-04-03T12:01:02.743Z,27.28
2023-04-03T12:02:02.795Z,27.29
2023-04-03T12:03:03.000Z,27.27
2023-04-03T12:04:02.806Z,27.22
2023-04-03T12:05:02.749Z,27.24
2023-04-03T12:06:02.877Z,27.27
2023-04-03T12:07:02.745Z,27.27
2023-04-03T12:08:02.754Z,27.28
2023-04-03T12:09:02.753Z,27.21
2023-04-03T12:10:02.750Z,27.27
2023-04-03T12:11:02.745Z,27.32
2023-04-03T12:12:02.747Z,27.25
2023-04-03T12:13:02.749Z,27.28
2023-04-03T12:14:02.750Z,27.21
2023-04-03T12:15:02.743Z,27.25
2023-04-03T12:16:02.751Z,27.22
2023-04-03T12:17:02.787Z,27.27
2023-04-03T12:18:02.782Z,27.18
2023-04-03T12:19:02.746Z,27.18
2023-04-03T12:20:02.791Z,27.28
2023-04-03T12:21:02.740Z,27.25
2023-04-03T12:22:02.873Z,27.28
2023-04-03T12:23:02.741Z,27.28
2023-04-03T12:24:02.753Z,27.21
2023-04-03T12:25:02.742Z,27.21
2023-04-03T12:26:02.752Z,27.19
2023-04-03T12:27:02.851Z,27.24
2023-04-03T12:28:02.748Z,27.32
2023-04-03T12:29:02.749Z,27.25
2023-04-03T12:30:02.788Z,27.24
2023-04-03T12:31:02.829Z,27.24
2023-04-03T12:32:02.750Z,27.19
2023-04-03T12:33:12.539Z,27.24
2023-04-03T12:34:02.751Z,27.24
2023-04-03T12:35:02.745Z,27.29
2023-04-03T12:36:02.767Z,27.25
2023-04-03T12:37:02.752Z,27.25
2023-04-03T12:38:02.870Z,27.22
2023-04-03T12:39:02.754Z,27.17
2023-04-03T12:40:02.754Z,27.19
2023-04-03T12:41:02.755Z,27.24
2023-04-03T12:42:02.744Z,27.22
2023-04-03T12:43:04.114Z,27.14
2023-04-03T12:44:02.750Z,27.12
2023-04-03T12:45:02.775Z,27.19
2023-04-03T12:46:03.003Z,27.18
2023-04-03T12:47:02.769Z,27.17
2023-04-03T12:48:02.833Z,27.10
2023-04-03T12:49:02.752Z,27.09
2023-04-03T12:50:02.765Z,27.10
2023-04-03T12:51:02.753Z,27.04
2023-04-03T12:52:02.759Z,27.03
2023-04-03T12:53:02.752Z,26.99